Coleman A. Young Municipal Airport
KDET : now visible

Airfield :











YOU CAN JOIN US ON...

 
LOGIN :

Register | Disclaimer

   EN    FR    IT 

 









Legend :    VFR   Marginal VFR   IFR   Intensive IFR   Very Intensive IFR
Visi :
Ceiling :
>= 8 km
>= 3000ft
5 to 8 km
1000 to 3000 ft
1500m to 5 km
500 to 1000 ft
800 to 1500m
200 to 500 ft
< 800m
< 200 ft
Symbols :   Thunderstorms  Fog  Heavy snow  Heavy precipitations  Wind > 20 kt






- Airport Elevation : 626 ft
- IATA code : DET


KDET - Coleman A. Young Municipal

CURRENT METAR :
  • 251953Z 11010KT 1 3/4SM -RA BR BKN036 BKN045 OVC060 18/16 A3009 RMK AO2 RAB06 SLP187 P0003 T01780156

EXPIRED METARs :
  • 251942Z 11008KT 1 3/4SM -RA FEW032 BKN040 OVC060 18/16 A3009 RMK AO2 RAB06 P0001 T01830156
  • 251853Z 11011G19KT 10SM BKN048 OVC075 19/14 A3010 RMK AO2 SLP191 T01890139
  • 251753Z 11015G21KT 10SM SCT080 OVC095 19/13 A3012 RMK AO2 RAB43E53 SLP198 P0000 60000 T01890133 10200 20161 58015

TAF KDET
Valid from the 25 at 18:00 until the 26 at 18:00 UTC


251726Z 2518/2618 11012KT P6SM -SHRA SCT025 OVC040
TEMPO 2518/2522 5SM -SHRA OVC025
FM252200 12008KT P6SM BKN030 OVC060
TEMPO 2601/2605 3SM SHRA BKN020 OVC040
FM260500 17009KT 6SM BR OVC012
PROB30 2608/2614 4SM -DZ OVC007
FM261400 21013KT P6SM -SHRA BKN022 BKN045
KZOB FIR / North America



MET'MAP, your aeronautical weather chart ! - Copyright ORBIFLY December 2007 - Disclaimer

ORBIFLY MET'MAP TEAM :

Programming & Development : Alexandra Zaïnal
Original concept : Baudouin d'Aumeries
Technical & hardware support : Manuel Goepfert
Assistance : Marc-Olivier Méhu

Contact : metmap@orbifly.com




SOURCES & CREDITS :

   NOAA       Earth
Advisory